Time;durP1;ratioP1;P1;durP2;ratioP2;P2;SDS_P1;SDS_P2;PMS_P1;PMS_P2;Temp;Humidity;BMP_temperature;BMP_pressure;BME280_temperature;BME280_humidity;BME280_pressure;Samples;Min_cycle;Max_cycle;Signal;HPM_P1;HPM_P2
2023/03/06 05:33:40;;;;;;;;;38.25;32.50;;;;;6.60;61.62;100548.25;5099477;27;45787;-58
2023/03/06 05:36:07;;;;;;;;;39.50;31.25;;;;;6.65;61.40;100553.41;5101408;27;45340;-58
2023/03/06 05:38:33;;;;;;;;;42.50;32.75;;;;;6.50;60.65;100520.16;5100982;27;46448;-58
2023/03/06 05:40:58;;;;;;;;;32.50;32.00;;;;;6.70;61.31;100546.16;5101284;27;51436;-59
2023/03/06 05:43:23;;;;;;;;;38.25;30.75;;;;;6.67;60.45;100551.56;5101831;27;45318;-59
2023/03/06 05:45:51;;;;;;;;;36.25;29.25;;;;;6.68;59.96;100540.88;5101531;27;45219;-59
2023/03/06 05:48:17;;;;;;;;;33.25;31.75;;;;;6.44;60.03;100512.38;5100883;27;46318;-59
2023/03/06 05:50:42;;;;;;;;;32.00;28.75;;;;;6.61;59.99;100536.69;5101073;27;45450;-59
2023/03/06 05:53:07;;;;;;;;;38.25;31.50;;;;;6.61;58.89;100531.34;5100954;27;49897;-58
2023/03/06 05:55:32;;;;;;;;;34.75;29.75;;;;;6.64;59.08;100544.53;5100977;27;45449;-59
2023/03/06 05:57:58;;;;;;;;;31.75;27.50;;;;;6.52;59.56;100544.97;5100830;27;53717;-58
2023/03/06 06:00:23;;;;;;;;;25.00;17.50;;;;;6.49;59.19;100534.41;5101202;27;45372;-59
2023/03/06 06:02:49;;;;;;;;;36.25;23.75;;;;;6.56;59.74;100525.28;5100958;27;45455;-60
2023/03/06 06:05:14;;;;;;;;;34.25;28.25;;;;;6.70;59.19;100514.19;5100657;27;45322;-57
2023/03/06 06:07:40;;;;;;;;;39.25;32.50;;;;;6.80;58.74;100488.97;5100879;27;46094;-58
2023/03/06 06:10:06;;;;;;;;;35.75;28.50;;;;;6.89;58.75;100499.28;5101397;27;46229;-58
2023/03/06 06:12:33;;;;;;;;;30.75;26.75;;;;;6.90;58.79;100500.16;5101081;27;45426;-60
2023/03/06 06:14:58;;;;;;;;;31.50;28.50;;;;;6.82;58.02;100505.75;5101047;27;45430;-60
2023/03/06 06:17:23;;;;;;;;;29.75;28.25;;;;;6.78;58.46;100504.13;5100401;27;46255;-59
2023/03/06 06:19:49;;;;;;;;;37.75;31.00;;;;;6.79;59.19;100496.09;5100793;27;45196;-61
2023/03/06 06:22:14;;;;;;;;;38.25;26.50;;;;;6.82;58.55;100487.09;5101110;27;45271;-60
2023/03/06 06:24:39;;;;;;;;;31.50;28.75;;;;;6.85;59.13;100489.69;5100138;27;45284;-60
2023/03/06 06:27:06;;;;;;;;;35.75;29.25;;;;;6.91;58.61;100497.44;5099736;27;45490;-60
2023/03/06 06:29:31;;;;;;;;;26.75;25.50;;;;;6.87;58.41;100509.16;5100800;27;45333;-59
2023/03/06 06:31:57;;;;;;;;;33.25;28.75;;;;;6.81;58.69;100518.22;5100510;27;45350;-61
2023/03/06 06:34:24;;;;;;;;;30.25;28.50;;;;;6.79;58.65;100513.88;5100300;27;45329;-59
2023/03/06 06:36:50;;;;;;;;;32.75;29.00;;;;;6.76;58.47;100511.31;5100774;27;45410;-60
2023/03/06 06:39:18;;;;;;;;;28.75;22.25;;;;;6.76;58.93;100516.63;5100432;27;45436;-60
2023/03/06 06:41:44;;;;;;;;;26.00;26.00;;;;;6.67;58.61;100524.94;5100788;27;45299;-60
2023/03/06 06:44:13;;;;;;;;;31.50;28.00;;;;;6.65;58.63;100534.75;5100232;27;46060;-59
2023/03/06 06:46:39;;;;;;;;;29.00;24.50;;;;;6.68;58.58;100535.53;5100007;27;45329;-60
2023/03/06 06:49:04;;;;;;;;;41.75;33.50;;;;;6.71;58.67;100537.25;5099766;27;45384;-60
2023/03/06 06:51:31;;;;;;;;;39.00;27.00;;;;;6.73;58.65;100546.03;5100608;27;45480;-60
2023/03/06 06:53:57;;;;;;;;;35.50;33.00;;;;;6.78;59.04;100531.66;5100356;27;45490;-60
2023/03/06 06:56:23;;;;;;;;;25.00;23.75;;;;;6.84;58.28;100544.75;5099965;27;45402;-60
2023/03/06 06:58:51;;;;;;;;;26.75;23.75;;;;;6.84;58.66;100549.22;5100052;27;45314;-59
2023/03/06 07:01:16;;;;;;;;;23.75;21.50;;;;;6.89;58.41;100543.75;5100252;27;45356;-60
2023/03/06 07:03:41;;;;;;;;;34.25;26.25;;;;;6.82;58.72;100541.28;5099421;27;57978;-59
2023/03/06 07:06:07;;;;;;;;;25.00;25.00;;;;;6.82;58.81;100543.06;5100006;27;45306;-59
2023/03/06 07:08:32;;;;;;;;;31.00;22.00;;;;;6.79;58.94;100552.06;5099681;27;45321;-60
2023/03/06 07:11:04;;;;;;;;;27.00;24.75;;;;;6.74;59.06;100548.66;5100127;27;45258;-60
2023/03/06 07:13:29;;;;;;;;;32.00;29.25;;;;;6.69;59.12;100555.06;5097925;27;46050;-60
2023/03/06 07:15:55;;;;;;;;;33.75;31.00;;;;;6.63;59.45;100553.47;5099637;27;46297;-60
2023/03/06 07:18:20;;;;;;;;;27.50;25.50;;;;;6.47;60.06;100557.53;5098590;27;56771;-61
2023/03/06 07:20:45;;;;;;;;;26.50;23.75;;;;;6.43;59.46;100551.47;5098392;27;45618;-60
2023/03/06 07:23:12;;;;;;;;;32.00;27.25;;;;;6.40;59.97;100551.53;5099440;27;45219;-60
2023/03/06 07:25:37;;;;;;;;;32.00;28.00;;;;;6.36;60.04;100541.94;5099205;27;45251;-60
2023/03/06 07:28:03;;;;;;;;;30.50;27.75;;;;;6.40;59.79;100540.03;5099221;27;45390;-61
2023/03/06 07:30:28;;;;;;;;;33.50;25.00;;;;;6.39;60.43;100547.13;5098556;27;45230;-62
2023/03/06 07:32:55;;;;;;;;;23.25;18.50;;;;;6.44;60.44;100542.56;5099042;27;45885;-61
2023/03/06 07:35:20;;;;;;;;;29.00;27.50;;;;;6.50;59.97;100548.59;5099090;27;46257;-63
2023/03/06 07:37:46;;;;;;;;;27.25;25.75;;;;;6.45;60.13;100548.75;5098841;27;45323;-60
2023/03/06 07:40:11;;;;;;;;;35.00;27.50;;;;;6.42;59.54;100548.84;5099696;27;45517;-60
2023/03/06 07:42:37;;;;;;;;;25.50;22.25;;;;;6.41;60.63;100545.31;5099404;27;45987;-60
2023/03/06 07:45:03;;;;;;;;;30.00;23.25;;;;;6.42;60.25;100549.72;5099291;27;45361;-61
2023/03/06 07:47:28;;;;;;;;;27.50;25.25;;;;;6.42;60.61;100540.84;5098888;27;45319;-61
2023/03/06 07:49:55;;;;;;;;;28.50;23.00;;;;;6.45;60.45;100538.09;5099058;27;52148;-62
2023/03/06 07:52:21;;;;;;;;;27.25;24.50;;;;;6.45;60.56;100543.44;5099217;27;45342;-60
2023/03/06 07:54:47;;;;;;;;;25.50;24.50;;;;;6.32;60.57;100534.06;5099323;27;46204;-60
2023/03/06 07:57:13;;;;;;;;;25.00;21.25;;;;;6.41;60.36;100541.75;5098949;27;45350;-60
2023/03/06 07:59:39;;;;;;;;;28.25;27.00;;;;;6.47;60.68;100546.88;5094017;27;45421;-60
2023/03/06 08:02:04;;;;;;;;;34.75;31.00;;;;;6.42;60.55;100531.06;5098837;27;45490;-61
2023/03/06 08:04:29;;;;;;;;;28.75;24.75;;;;;6.41;61.20;100550.63;5098872;27;46019;-59
2023/03/06 08:06:58;;;;;;;;;27.75;25.00;;;;;6.24;61.44;100542.31;5098932;27;48099;-61
2023/03/06 08:09:23;;;;;;;;;21.00;20.00;;;;;6.28;61.93;100538.63;5098860;27;45472;-59
2023/03/06 08:11:49;;;;;;;;;31.25;24.75;;;;;6.41;61.58;100547.09;5111800;27;45341;-60
2023/03/06 08:14:14;;;;;;;;;30.00;23.00;;;;;6.49;60.71;100547.72;5102770;27;45456;-61
2023/03/06 08:16:39;;;;;;;;;27.50;22.75;;;;;6.49;61.06;100550.38;5099236;27;45385;-60
2023/03/06 08:19:05;;;;;;;;;25.00;23.50;;;;;6.50;61.06;100546.78;5097639;27;53093;-61
2023/03/06 08:21:30;;;;;;;;;29.75;26.50;;;;;6.53;61.06;100553.81;5098552;27;45548;-62
2023/03/06 08:23:55;;;;;;;;;28.25;24.00;;;;;6.50;61.52;100541.47;5101126;27;46076;-60
2023/03/06 08:26:24;;;;;;;;;26.00;24.50;;;;;6.62;60.96;100549.06;5102900;27;45253;-61
2023/03/06 08:28:51;;;;;;;;;27.50;25.00;;;;;6.65;61.22;100558.72;5098627;27;45401;-60
2023/03/06 08:31:24;;;;;;;;;23.50;21.00;;;;;6.72;60.83;100565.63;5088743;27;45322;-60
2023/03/06 08:33:50;;;;;;;;;33.25;26.25;;;;;6.69;61.40;100568.38;5081870;27;46156;-61
2023/03/06 08:36:15;;;;;;;;;38.25;26.00;;;;;6.68;61.33;100563.97;5098262;27;45561;-60
2023/03/06 08:38:41;;;;;;;;;27.50;25.50;;;;;6.69;60.98;100566.59;5098679;27;45321;-61
2023/03/06 08:41:06;;;;;;;;;17.75;15.25;;;;;6.69;61.40;100571.91;5098301;27;49590;-60
2023/03/06 08:43:32;;;;;;;;;22.25;20.25;;;;;6.71;60.86;100569.22;5097690;27;46063;-61
2023/03/06 08:45:58;;;;;;;;;29.25;25.50;;;;;6.76;61.29;100572.59;5098500;27;45633;-63
2023/03/06 08:48:24;;;;;;;;;33.50;26.00;;;;;6.68;60.88;100548.88;5098657;27;45787;-61
2023/03/06 08:50:50;;;;;;;;;30.00;28.75;;;;;6.83;61.27;100577.66;5101880;27;45503;-61
2023/03/06 08:53:16;;;;;;;;;31.25;30.00;;;;;6.71;60.98;100577.19;5101758;27;47390;-60
2023/03/06 08:55:42;;;;;;;;;30.50;27.25;;;;;6.68;61.24;100574.63;5098881;27;45264;-61
2023/03/06 08:58:07;;;;;;;;;34.50;25.50;;;;;6.68;61.35;100562.19;5101709;27;45408;-60
2023/03/06 09:00:33;;;;;;;;;25.25;24.00;;;;;6.80;61.17;100575.06;5101936;27;45496;-61
2023/03/06 09:02:59;;;;;;;;;24.25;24.25;;;;;6.87;60.82;100575.78;5101619;27;46310;-63
2023/03/06 09:05:24;;;;;;;;;30.50;27.00;;;;;6.81;60.96;100567.97;5091551;27;45492;-62
2023/03/06 09:07:50;;;;;;;;;33.75;27.00;;;;;6.85;61.10;100564.28;5101301;27;45365;-61
2023/03/06 09:10:17;;;;;;;;;30.00;24.75;;;;;7.03;61.08;100577.00;5101545;27;45360;-60
2023/03/06 09:12:43;;;;;;;;;27.00;22.00;;;;;6.98;60.63;100568.25;5098104;27;47280;-61
2023/03/06 09:15:09;;;;;;;;;26.75;21.75;;;;;7.01;60.64;100576.16;5089944;27;45382;-61
2023/03/06 09:17:34;;;;;;;;;29.00;26.75;;;;;7.06;60.79;100573.38;5101267;27;45274;-59
2023/03/06 09:20:00;;;;;;;;;25.75;24.00;;;;;7.04;61.30;100577.88;5101541;27;45313;-60
2023/03/06 09:22:25;;;;;;;;;24.25;21.25;;;;;6.88;60.88;100577.53;5101255;27;46456;-61
2023/03/06 09:24:51;;;;;;;;;28.50;24.25;;;;;6.91;61.65;100580.06;5101643;27;45478;-61
2023/03/06 09:27:17;;;;;;;;;30.00;22.50;;;;;6.96;61.60;100579.94;5101468;27;45309;-60
2023/03/06 09:29:42;;;;;;;;;23.00;21.50;;;;;7.04;61.50;100584.06;5101342;27;45520;-60
2023/03/06 09:32:08;;;;;;;;;25.50;22.75;;;;;7.09;60.83;100587.44;5101242;27;46034;-61
2023/03/06 09:34:33;;;;;;;;;24.50;22.75;;;;;7.19;60.90;100583.53;5111488;27;45313;-61
2023/03/06 09:37:01;;;;;;;;;33.25;29.25;;;;;7.26;60.69;100581.53;5101235;27;45449;-61
2023/03/06 09:39:26;;;;;;;;;33.00;26.50;;;;;7.23;60.92;100582.50;5101114;27;45503;-56
2023/03/06 09:41:53;;;;;;;;;31.50;22.00;;;;;7.34;60.42;100587.47;5101241;27;46078;-58
2023/03/06 09:44:22;;;;;;;;;30.25;25.25;;;;;7.46;60.34;100587.03;5101164;27;45402;-59
2023/03/06 09:47:17;;;;;;;;;29.00;29.00;;;;;7.69;59.59;100582.66;5100951;27;45350;-58
2023/03/06 09:50:08;;;;;;;;;21.00;21.00;;;;;7.76;58.77;100582.38;5099703;27;45357;-57
2023/03/06 09:53:14;;;;;;;;;27.25;26.00;;;;;7.84;58.50;100587.41;5100285;27;45474;-57
2023/03/06 09:55:40;;;;;;;;;34.75;29.25;;;;;7.95;58.75;100579.91;5100985;27;45392;-57
2023/03/06 09:58:24;;;;;;;;;27.75;24.00;;;;;7.94;58.07;100589.69;5099869;27;45531;-57
2023/03/06 10:01:16;;;;;;;;;33.00;30.25;;;;;8.04;58.04;100581.34;5100412;27;45854;-58
2023/03/06 10:03:52;;;;;;;;;28.00;23.00;;;;;8.11;57.21;100581.06;5100262;27;46923;-58
2023/03/06 10:06:29;;;;;;;;;28.25;25.00;;;;;8.10;56.51;100584.66;5100588;27;45367;-58
2023/03/06 10:08:59;;;;;;;;;32.00;29.00;;;;;8.29;56.52;100584.81;5089345;27;45326;-58
2023/03/06 10:12:09;;;;;;;;;24.25;23.75;;;;;8.39;56.02;100575.53;5100749;27;45382;-59
2023/03/06 10:14:42;;;;;;;;;20.75;20.25;;;;;8.56;55.11;100565.06;5057979;27;45540;-59
2023/03/06 10:17:16;;;;;;;;;33.00;25.75;;;;;8.65;54.69;100566.47;5100536;27;45398;-60
2023/03/06 10:19:41;;;;;;;;;24.75;21.50;;;;;8.82;53.98;100573.81;5100603;27;45424;-58
2023/03/06 10:22:25;;;;;;;;;22.00;19.75;;;;;9.00;53.75;100560.56;5100689;27;45916;-59
2023/03/06 10:25:15;;;;;;;;;24.75;23.25;;;;;9.03;51.90;100557.72;5100693;27;45424;-57
2023/03/06 10:27:49;;;;;;;;;26.25;20.50;;;;;9.09;51.75;100553.94;5100625;27;45361;-59
2023/03/06 10:30:45;;;;;;;;;21.25;17.50;;;;;9.20;51.42;100551.66;5100682;27;45332;-57
2023/03/06 10:33:20;;;;;;;;;15.75;15.75;;;;;9.33;51.58;100554.69;5100310;27;45365;-58
2023/03/06 10:35:54;;;;;;;;;26.00;22.75;;;;;9.33;51.42;100539.50;5100264;27;46303;-58
2023/03/06 10:38:23;;;;;;;;;16.00;15.50;;;;;9.50;47.69;100544.09;5100563;27;45295;-58
2023/03/06 10:41:07;;;;;;;;;17.00;14.00;;;;;9.62;47.83;100546.22;5100455;27;45833;-59
2023/03/06 10:43:34;;;;;;;;;12.75;10.75;;;;;9.76;47.87;100554.50;5100359;27;45533;-58
2023/03/06 10:46:00;;;;;;;;;15.25;14.75;;;;;9.68;47.50;100548.63;5100265;27;46273;-59
2023/03/06 10:48:28;;;;;;;;;18.00;16.25;;;;;9.75;47.80;100549.22;5099824;27;45329;-58
2023/03/06 10:51:18;;;;;;;;;23.00;19.25;;;;;9.75;48.32;100542.06;5100379;27;45440;-60
2023/03/06 10:54:02;;;;;;;;;13.50;12.75;;;;;9.94;48.18;100546.56;5100001;27;45833;-57
2023/03/06 10:56:38;;;;;;;;;25.00;20.75;;;;;9.74;47.96;100545.66;5099586;27;48089;-59
2023/03/06 10:59:10;;;;;;;;;25.75;20.50;;;;;9.77;47.89;100550.03;5088481;27;45652;-59
2023/03/06 11:01:36;;;;;;;;;17.50;17.50;;;;;9.83;48.25;100545.25;5100047;27;45440;-59
2023/03/06 11:04:19;;;;;;;;;21.25;20.00;;;;;9.86;47.09;100538.88;5099584;27;45302;-59
2023/03/06 11:06:45;;;;;;;;;20.25;16.50;;;;;9.91;48.67;100536.84;5099340;27;45346;-57
2023/03/06 11:09:24;;;;;;;;;20.25;15.00;;;;;9.93;47.34;100537.66;5100010;27;45217;-57
2023/03/06 11:11:51;;;;;;;;;19.75;16.75;;;;;9.94;45.71;100538.53;5099117;27;45346;-59
2023/03/06 11:14:21;;;;;;;;;18.00;13.75;;;;;9.92;44.88;100532.38;5099968;27;45348;-58
2023/03/06 11:16:51;;;;;;;;;19.50;15.00;;;;;10.00;44.69;100532.88;5099248;27;46254;-58
2023/03/06 11:19:26;;;;;;;;;16.50;13.50;;;;;9.96;44.22;100525.91;5099027;27;45353;-57
2023/03/06 11:22:02;;;;;;;;;12.25;12.25;;;;;9.93;44.94;100518.91;5099989;27;45381;-58
2023/03/06 11:24:36;;;;;;;;;20.75;14.50;;;;;10.00;45.32;100525.72;5099656;27;45515;-60
2023/03/06 11:27:21;;;;;;;;;9.50;9.50;;;;;9.76;44.98;100502.78;5098016;27;46382;-59
2023/03/06 11:29:50;;;;;;;;;13.00;11.50;;;;;9.80;45.02;100518.59;5100419;27;45531;-59
2023/03/06 11:32:23;;;;;;;;;15.75;14.00;;;;;9.85;45.30;100521.97;5104886;27;45402;-58
2023/03/06 11:34:58;;;;;;;;;14.00;13.75;;;;;9.92;45.60;100532.38;5099675;27;45320;-58
2023/03/06 11:37:41;;;;;;;;;13.75;13.00;;;;;9.74;43.99;100529.59;5099575;27;45513;-57
2023/03/06 11:40:10;;;;;;;;;14.00;13.50;;;;;9.67;44.96;100527.28;5099672;27;45400;-57
2023/03/06 11:42:41;;;;;;;;;19.00;15.00;;;;;9.61;45.32;100532.91;5099588;27;45286;-60
2023/03/06 11:45:09;;;;;;;;;21.25;18.50;;;;;9.64;45.86;100527.41;5099521;27;45336;-58
2023/03/06 11:47:43;;;;;;;;;18.25;16.50;;;;;9.79;46.42;100519.53;5099293;27;45291;-58
2023/03/06 11:50:30;;;;;;;;;8.00;8.00;;;;;9.85;45.58;100500.53;5099721;27;45330;-59
2023/03/06 11:52:57;;;;;;;;;9.25;8.00;;;;;10.09;45.54;100519.06;5099796;27;45269;-58
2023/03/06 11:55:54;;;;;;;;;15.25;14.25;;;;;10.13;45.66;100500.06;5099431;27;45350;-59
2023/03/06 11:58:31;;;;;;;;;20.25;16.00;;;;;10.44;45.50;100522.75;5099240;27;46075;-59
2023/03/06 12:01:08;;;;;;;;;13.50;13.50;;;;;10.51;45.27;100506.28;5099673;27;45409;-57
2023/03/06 12:03:58;;;;;;;;;15.75;14.75;;;;;10.54;44.91;100521.38;5099142;27;45420;-59
2023/03/06 12:06:43;;;;;;;;;16.50;13.00;;;;;10.47;44.27;100514.53;5111780;27;46246;-58
2023/03/06 12:09:11;;;;;;;;;12.75;11.75;;;;;10.40;45.67;100513.13;5099206;27;45336;-58
2023/03/06 12:11:49;;;;;;;;;16.75;14.00;;;;;10.39;45.59;100506.88;5102215;27;45381;-57
2023/03/06 12:14:24;;;;;;;;;18.75;18.75;;;;;10.38;45.71;100512.34;5105640;27;45400;-58
2023/03/06 12:17:05;;;;;;;;;17.00;15.75;;;;;10.39;45.99;100503.34;5099014;27;45660;-59
2023/03/06 12:19:51;;;;;;;;;19.50;15.00;;;;;10.37;45.79;100500.75;5098639;27;45428;-58
2023/03/06 12:22:33;;;;;;;;;20.00;18.00;;;;;10.33;46.04;100501.84;5099421;27;45439;-57
2023/03/06 12:25:30;;;;;;;;;14.75;14.75;;;;;10.16;46.01;100473.16;5102726;27;45331;-58
2023/03/06 12:28:04;;;;;;;;;14.25;14.25;;;;;10.02;46.32;100494.38;5102563;27;45404;-57
2023/03/06 12:30:29;;;;;;;;;21.75;18.75;;;;;9.92;47.18;100494.88;5101704;27;46352;-57
2023/03/06 12:33:16;;;;;;;;;18.00;18.00;;;;;9.75;47.23;100493.00;5107181;27;45491;-58
2023/03/06 12:35:53;;;;;;;;;18.00;18.00;;;;;9.65;48.01;100494.34;5105972;27;45323;-57
2023/03/06 12:38:28;;;;;;;;;22.50;20.50;;;;;9.60;48.20;100494.59;5103685;27;45439;-58
2023/03/06 12:40:59;;;;;;;;;18.75;15.00;;;;;9.56;48.54;100482.25;5102093;27;46112;-58
2023/03/06 12:43:55;;;;;;;;;17.50;17.50;;;;;9.53;48.41;100484.22;5102004;27;45706;-58
2023/03/06 12:46:23;;;;;;;;;24.50;16.75;;;;;9.45;48.66;100485.41;5102401;27;45456;-57
2023/03/06 12:49:02;;;;;;;;;22.50;17.00;;;;;9.39;49.05;100479.50;5101753;27;45286;-59
2023/03/06 12:51:28;;;;;;;;;20.50;18.00;;;;;9.28;49.22;100487.13;5100306;27;48055;-60
2023/03/06 12:53:57;;;;;;;;;18.00;18.00;;;;;9.23;49.46;100475.75;5102469;27;45487;-58
2023/03/06 12:56:23;;;;;;;;;20.75;17.00;;;;;9.25;49.68;100484.59;5102107;27;45393;-58
2023/03/06 12:58:53;;;;;;;;;17.25;15.50;;;;;9.25;50.32;100482.78;5101650;27;45380;-59
2023/03/06 13:01:51;;;;;;;;;19.75;18.75;;;;;9.18;50.17;100472.44;5107089;27;45392;-58
2023/03/06 13:04:44;;;;;;;;;20.25;19.25;;;;;9.11;50.26;100472.69;5101658;27;45419;-58
2023/03/06 13:07:28;;;;;;;;;20.75;17.25;;;;;9.11;50.72;100477.16;5102122;27;45223;-58
2023/03/06 13:10:25;;;;;;;;;19.75;17.25;;;;;9.20;51.07;100463.38;5103591;27;45535;-59
2023/03/06 13:12:55;;;;;;;;;17.75;16.00;;;;;9.27;50.51;100469.34;5105232;27;46684;-57
2023/03/06 13:15:35;;;;;;;;;24.25;21.50;;;;;9.32;50.73;100460.19;5101807;27;45405;-58
2023/03/06 13:18:21;;;;;;;;;15.25;14.00;;;;;9.36;50.19;100461.75;5101270;27;45391;-59
2023/03/06 13:20:56;;;;;;;;;15.00;12.75;;;;;9.37;50.56;100468.84;5101494;27;45314;-58
2023/03/06 13:23:42;;;;;;;;;14.00;13.50;;;;;9.34;50.46;100460.97;5101275;27;46359;-58
2023/03/06 13:26:23;;;;;;;;;15.25;15.25;;;;;9.39;50.83;100452.72;5101159;27;45393;-59
2023/03/06 13:28:53;;;;;;;;;19.75;19.00;;;;;9.42;50.79;100463.31;5101511;27;45317;-58
2023/03/06 13:31:35;;;;;;;;;22.25;18.50;;;;;9.46;50.89;100462.22;5100904;27;45362;-61
2023/03/06 13:34:05;;;;;;;;;26.25;22.25;;;;;9.38;51.58;100459.88;5100595;27;45355;-59
2023/03/06 13:36:32;;;;;;;;;16.25;12.75;;;;;9.45;50.74;100456.00;5101287;27;45295;-58
2023/03/06 13:39:07;;;;;;;;;23.25;20.75;;;;;9.38;50.85;100449.19;5101492;27;45287;-59
2023/03/06 13:41:57;;;;;;;;;19.00;17.50;;;;;9.49;50.91;100446.91;5100998;27;45318;-59
2023/03/06 13:44:22;;;;;;;;;14.75;14.75;;;;;9.44;50.51;100451.56;5090599;27;46115;-58
2023/03/06 13:47:00;;;;;;;;;23.50;17.50;;;;;9.48;50.69;100457.66;5098102;27;45468;-58
2023/03/06 13:49:26;;;;;;;;;18.50;17.50;;;;;9.34;50.65;100425.34;5100082;27;45393;-58
2023/03/06 13:51:51;;;;;;;;;17.50;14.75;;;;;9.46;50.58;100451.50;5100534;27;45596;-57
2023/03/06 13:54:38;;;;;;;;;16.00;15.00;;;;;9.36;51.03;100443.03;5101039;27;46236;-58
2023/03/06 13:57:25;;;;;;;;;20.75;14.75;;;;;9.43;50.74;100443.66;5100742;27;45265;-58
2023/03/06 14:00:13;;;;;;;;;20.00;18.75;;;;;9.32;51.29;100446.81;5101235;27;45397;-58
2023/03/06 14:02:59;;;;;;;;;17.50;16.00;;;;;9.38;50.99;100443.84;5100855;27;46290;-59
2023/03/06 14:05:39;;;;;;;;;17.50;15.00;;;;;9.42;50.93;100447.25;5100469;27;45328;-58
2023/03/06 14:08:09;;;;;;;;;16.25;15.00;;;;;9.37;51.33;100439.41;5100522;27;46086;-58
2023/03/06 14:10:35;;;;;;;;;17.75;15.00;;;;;9.32;51.50;100438.78;5101110;27;45247;-58
2023/03/06 14:13:16;;;;;;;;;19.50;17.75;;;;;9.29;51.44;100436.22;5100734;27;45311;-59
2023/03/06 14:15:50;;;;;;;;;18.75;16.00;;;;;9.27;52.13;100435.41;5099055;27;45480;-59
2023/03/06 14:18:20;;;;;;;;;24.50;20.50;;;;;9.23;51.95;100436.50;5098624;27;45379;-58
2023/03/06 14:20:52;;;;;;;;;18.25;15.50;;;;;9.30;51.97;100439.78;5101053;27;45330;-59
2023/03/06 14:23:20;;;;;;;;;16.50;14.25;;;;;9.37;51.46;100436.75;5100060;27;45461;-57
2023/03/06 14:25:50;;;;;;;;;20.25;14.00;;;;;9.41;51.75;100432.13;5100544;27;45394;-58
2023/03/06 14:28:29;;;;;;;;;22.25;19.25;;;;;9.48;51.79;100434.44;5100697;27;45471;-59
2023/03/06 14:30:57;;;;;;;;;28.25;17.25;;;;;9.51;51.66;100424.56;5099531;27;45436;-58
2023/03/06 14:33:38;;;;;;;;;16.00;16.00;;;;;9.64;51.41;100439.09;5100111;27;45449;-58
2023/03/06 14:36:05;;;;;;;;;15.25;13.25;;;;;9.53;51.62;100434.22;5100345;27;45930;-59
2023/03/06 14:38:36;;;;;;;;;19.50;16.00;;;;;9.53;51.90;100434.22;5099595;27;45359;-58
2023/03/06 14:41:04;;;;;;;;;16.25;16.25;;;;;9.51;52.11;100432.59;5100676;27;45422;-58
2023/03/06 14:43:31;;;;;;;;;18.50;16.75;;;;;9.35;52.42;100437.78;5100135;27;45449;-59
2023/03/06 14:45:58;;;;;;;;;23.25;19.50;;;;;9.34;52.73;100438.72;5099665;27;45389;-59
2023/03/06 14:48:34;;;;;;;;;13.75;13.25;;;;;9.32;52.36;100433.41;5099562;27;45369;-58
2023/03/06 14:51:01;;;;;;;;;15.75;13.00;;;;;9.25;51.99;100433.78;5100392;27;45331;-58
2023/03/06 14:53:29;;;;;;;;;13.00;13.00;;;;;9.22;52.69;100428.56;5099869;27;45329;-59
2023/03/06 14:56:01;;;;;;;;;17.00;16.50;;;;;9.29;52.80;100430.00;5100194;27;46410;-58
2023/03/06 14:58:51;;;;;;;;;14.25;13.75;;;;;9.35;52.81;100419.06;5099627;27;45359;-57
2023/03/06 15:01:23;;;;;;;;;14.00;13.00;;;;;9.35;52.85;100419.91;5100036;27;45282;-58
2023/03/06 15:03:56;;;;;;;;;16.50;14.50;;;;;9.36;52.66;100424.31;5099814;27;45316;-58
2023/03/06 15:06:26;;;;;;;;;14.75;14.00;;;;;9.33;52.74;100427.13;5099941;27;45317;-58
2023/03/06 15:08:59;;;;;;;;;18.25;14.00;;;;;9.26;53.08;100424.81;5100148;27;45320;-58
2023/03/06 15:11:25;;;;;;;;;20.00;13.75;;;;;9.28;52.98;100423.78;5099832;27;45333;-58
2023/03/06 15:14:03;;;;;;;;;21.50;16.50;;;;;9.26;53.23;100415.00;5099636;27;45447;-59
2023/03/06 15:16:29;;;;;;;;;18.75;14.50;;;;;9.33;52.86;100415.56;5098634;27;46382;-60
2023/03/06 15:19:00;;;;;;;;;18.25;17.25;;;;;9.31;52.76;100414.75;5097700;27;45309;-57
2023/03/06 15:21:35;;;;;;;;;14.50;14.50;;;;;9.34;52.60;100414.63;5099353;27;45391;-59
2023/03/06 15:24:00;;;;;;;;;18.00;15.50;;;;;9.38;53.05;100408.19;5099951;27;45366;-58
2023/03/06 15:26:35;;;;;;;;;12.50;12.50;;;;;9.35;53.02;100419.06;5099426;27;45360;-58
2023/03/06 15:29:09;;;;;;;;;18.00;16.00;;;;;9.39;52.62;100416.16;5099489;27;45389;-59
2023/03/06 15:31:40;;;;;;;;;18.75;14.50;;;;;9.26;52.69;100409.63;5099533;27;45284;-58
2023/03/06 15:34:05;;;;;;;;;11.75;11.25;;;;;9.29;52.49;100409.47;5099384;27;45350;-58
2023/03/06 15:36:34;;;;;;;;;13.50;12.50;;;;;9.27;52.57;100411.34;5099632;27;45394;-58
2023/03/06 15:39:00;;;;;;;;;17.50;15.25;;;;;9.30;52.45;100408.53;5099617;27;45409;-59
2023/03/06 15:41:35;;;;;;;;;19.25;14.25;;;;;9.42;52.51;100408.00;5099580;27;45468;-59
2023/03/06 15:44:07;;;;;;;;;15.25;15.25;;;;;9.53;52.00;100418.16;5099304;27;45351;-58
2023/03/06 15:46:32;;;;;;;;;13.75;13.75;;;;;9.48;51.33;100405.03;5099172;27;46310;-58
2023/03/06 15:49:03;;;;;;;;;14.50;13.75;;;;;9.43;51.51;100393.69;5098934;27;51376;-61
2023/03/06 15:51:32;;;;;;;;;14.50;12.75;;;;;9.39;51.51;100399.22;5099310;27;45267;-59
2023/03/06 15:53:57;;;;;;;;;16.75;12.00;;;;;9.35;51.57;100394.97;5099123;27;45457;-59
2023/03/06 15:56:32;;;;;;;;;15.00;13.00;;;;;9.34;51.39;100396.78;5099021;27;45388;-59
2023/03/06 15:58:59;;;;;;;;;16.25;14.50;;;;;9.34;51.78;100390.56;5097896;27;45549;-59
2023/03/06 16:01:24;;;;;;;;;12.25;12.25;;;;;9.30;51.79;100373.78;5099016;27;45340;-59
2023/03/06 16:03:50;;;;;;;;;13.75;12.50;;;;;9.38;51.30;100392.13;5101077;27;48605;-59
2023/03/06 16:06:18;;;;;;;;;13.75;12.00;;;;;9.46;51.61;100390.84;5100336;27;46196;-58
2023/03/06 16:08:44;;;;;;;;;16.50;10.25;;;;;9.58;51.59;100389.41;5099053;27;45368;-59
2023/03/06 16:11:23;;;;;;;;;17.50;12.00;;;;;9.59;51.17;100396.50;5099086;27;45276;-59
2023/03/06 16:13:49;;;;;;;;;13.00;13.00;;;;;9.58;51.13;100385.84;5103362;27;45327;-59
2023/03/06 16:16:18;;;;;;;;;16.00;13.00;;;;;9.51;51.49;100369.22;5099757;27;46055;-59
2023/03/06 16:18:44;;;;;;;;;13.50;11.25;;;;;9.51;51.19;100368.38;5091407;27;45344;-59
2023/03/06 16:21:10;;;;;;;;;6.75;6.75;;;;;9.63;50.96;100373.97;5098928;27;45349;-58
2023/03/06 16:23:37;;;;;;;;;15.00;14.00;;;;;9.61;50.68;100373.19;5098026;27;45463;-58
2023/03/06 16:26:04;;;;;;;;;9.25;9.25;;;;;9.53;50.65;100369.16;5099080;27;46070;-58
2023/03/06 16:28:31;;;;;;;;;16.50;15.00;;;;;9.49;51.29;100373.78;5098715;27;45472;-58
2023/03/06 16:30:56;;;;;;;;;12.50;12.50;;;;;9.42;50.98;100377.69;5098988;27;45383;-58
2023/03/06 16:33:21;;;;;;;;;13.75;11.50;;;;;9.39;51.12;100365.31;5097119;27;45583;-59
2023/03/06 16:35:48;;;;;;;;;14.25;11.50;;;;;9.41;51.42;100373.28;5097798;27;46105;-58
2023/03/06 16:38:14;;;;;;;;;16.00;14.00;;;;;9.51;51.16;100365.69;5098641;27;45283;-58
2023/03/06 16:40:40;;;;;;;;;12.00;12.00;;;;;9.51;51.11;100365.69;5098696;27;45323;-58
2023/03/06 16:43:07;;;;;;;;;12.50;11.75;;;;;9.48;50.80;100361.34;5098626;27;45844;-59
2023/03/06 16:45:38;;;;;;;;;12.50;12.50;;;;;9.46;51.21;100353.38;5098106;27;47069;-57
2023/03/06 16:48:04;;;;;;;;;10.00;8.25;;;;;9.49;50.70;100357.72;5098258;27;45387;-59
2023/03/06 16:50:36;;;;;;;;;12.00;12.00;;;;;9.45;50.95;100369.50;5098282;27;45535;-59
2023/03/06 16:53:03;;;;;;;;;17.25;14.00;;;;;9.42;50.68;100357.16;5098469;27;45484;-59
2023/03/06 16:55:28;;;;;;;;;13.00;11.00;;;;;9.48;51.33;100355.97;5096848;27;45282;-59
2023/03/06 16:57:53;;;;;;;;;15.75;15.75;;;;;9.57;50.96;100363.56;5098445;27;45372;-59
2023/03/06 17:00:20;;;;;;;;;9.50;9.00;;;;;9.56;51.00;100358.28;5097890;27;45306;-58
2023/03/06 17:02:51;;;;;;;;;13.25;12.00;;;;;9.61;50.86;100358.97;5098460;27;45239;-58
2023/03/06 17:05:17;;;;;;;;;9.00;9.00;;;;;9.63;50.34;100362.41;5097983;27;47076;-58
2023/03/06 17:07:43;;;;;;;;;12.00;12.00;;;;;9.63;50.34;100359.72;5098636;27;45317;-58